createdAt,value
2022-11-22T00:01:58.193Z,-0.95
2022-11-22T00:05:01.204Z,-0.89
2022-11-22T00:08:04.172Z,-0.85
2022-11-22T00:11:06.758Z,-0.78
2022-11-22T00:14:09.363Z,-0.79
2022-11-22T00:17:11.728Z,-0.69
2022-11-22T00:20:14.703Z,-0.73
2022-11-22T00:23:18.076Z,-1.04
2022-11-22T00:26:21.276Z,-0.84
2022-11-22T00:29:24.815Z,-1.02
2022-11-22T00:32:27.372Z,-0.99
2022-11-22T00:35:29.825Z,-0.91
2022-11-22T00:38:32.377Z,-0.98
2022-11-22T00:41:34.835Z,-0.87
2022-11-22T00:44:37.436Z,-0.87
2022-11-22T00:47:39.778Z,-0.79
2022-11-22T00:50:43.707Z,-0.70
2022-11-22T00:53:46.388Z,-0.71
2022-11-22T00:56:49.014Z,-0.70
2022-11-22T00:59:51.347Z,-0.66
2022-11-22T01:02:53.917Z,-0.86
2022-11-22T01:05:56.500Z,-0.68
2022-11-22T01:08:59.371Z,-0.67
2022-11-22T01:12:01.828Z,-0.64
2022-11-22T01:15:05.523Z,-0.64
2022-11-22T01:18:07.990Z,-0.64
2022-11-22T01:21:12.060Z,-0.64
2022-11-22T01:24:15.011Z,-0.74
2022-11-22T01:27:17.592Z,-0.78
2022-11-22T01:30:20.579Z,-0.75
2022-11-22T01:33:23.015Z,-0.90
2022-11-22T01:36:26.305Z,-0.85
2022-11-22T01:39:29.216Z,-0.99
2022-11-22T01:42:57.443Z,-0.93
2022-11-22T01:46:04.891Z,-0.90
2022-11-22T01:49:30.406Z,-0.94
2022-11-22T01:52:36.012Z,-0.91
2022-11-22T01:55:39.789Z,-1.04
2022-11-22T01:58:44.967Z,-1.20
2022-11-22T02:01:47.728Z,-1.29
2022-11-22T02:04:51.973Z,-1.37
2022-11-22T02:08:02.014Z,-1.45
2022-11-22T02:11:04.918Z,-1.46
2022-11-22T02:14:08.907Z,-1.57
2022-11-22T02:17:11.343Z,-1.47
2022-11-22T02:20:14.392Z,-1.45
2022-11-22T02:23:41.050Z,-1.46
2022-11-22T02:26:43.595Z,-1.48
2022-11-22T02:29:46.134Z,-1.25
2022-11-22T02:32:48.905Z,-1.30
2022-11-22T02:35:51.511Z,-1.30
2022-11-22T02:38:54.658Z,-1.14
2022-11-22T02:41:57.733Z,-1.19
2022-11-22T02:45:00.150Z,-1.24
2022-11-22T02:48:14.298Z,-1.02
2022-11-22T02:51:17.583Z,-0.93
2022-11-22T02:54:20.499Z,-1.02
2022-11-22T02:57:23.186Z,-1.04
2022-11-22T03:00:26.328Z,-1.05
2022-11-22T03:03:29.218Z,-1.19
2022-11-22T03:06:31.713Z,-1.03
2022-11-22T03:09:34.377Z,-0.88
2022-11-22T03:12:36.865Z,-0.77
2022-11-22T03:15:39.735Z,-0.80
2022-11-22T03:18:42.417Z,-1.04
2022-11-22T03:21:44.956Z,-0.89
2022-11-22T03:24:47.275Z,-0.80
2022-11-22T03:27:50.386Z,-0.79
2022-11-22T03:30:53.109Z,-0.89
2022-11-22T03:33:56.496Z,-0.72
2022-11-22T03:36:59.161Z,-0.70
2022-11-22T03:40:01.521Z,-0.64
2022-11-22T03:43:04.273Z,-0.64
2022-11-22T03:46:06.889Z,-0.71
2022-11-22T03:49:12.245Z,-0.84
2022-11-22T03:52:15.986Z,-0.99
2022-11-22T03:55:18.654Z,-0.95
2022-11-22T03:58:22.072Z,-0.96
2022-11-22T04:01:24.556Z,-0.93
2022-11-22T04:04:27.620Z,-0.92
2022-11-22T04:07:30.533Z,-0.97
2022-11-22T04:10:33.166Z,-1.07
2022-11-22T04:14:08.876Z,-1.08
2022-11-22T04:17:35.522Z,-1.05
2022-11-22T04:20:57.431Z,-1.12
2022-11-22T04:24:19.143Z,-1.19
2022-11-22T04:27:21.638Z,-1.17
2022-11-22T04:30:44.910Z,-1.17
2022-11-22T04:33:47.394Z,-1.11
2022-11-22T04:36:49.911Z,-1.10
2022-11-22T04:39:52.272Z,-1.03
2022-11-22T04:43:13.322Z,-1.04
2022-11-22T04:46:17.963Z,-1.02
2022-11-22T04:49:21.931Z,-1.13
2022-11-22T04:52:42.989Z,-1.14
2022-11-22T04:55:47.467Z,-0.98
2022-11-22T04:58:51.667Z,-1.02
2022-11-22T05:01:53.985Z,-1.02
2022-11-22T05:04:56.295Z,-1.13
2022-11-22T05:07:59.721Z,-1.08
2022-11-22T05:11:02.271Z,-1.15
2022-11-22T05:14:05.392Z,-1.17
2022-11-22T05:17:11.627Z,-1.22
2022-11-22T05:20:16.603Z,-1.29
2022-11-22T05:23:38.992Z,-1.25
2022-11-22T05:26:42.025Z,-1.13
2022-11-22T05:29:44.634Z,-0.92
2022-11-22T05:32:47.905Z,-0.82
2022-11-22T05:35:50.863Z,-0.89
2022-11-22T05:38:53.612Z,-0.96
2022-11-22T05:41:56.277Z,-0.92
2022-11-22T05:44:58.942Z,-1.04
2022-11-22T05:48:01.535Z,-1.01
2022-11-22T05:51:08.652Z,-0.96
2022-11-22T05:54:13.042Z,-0.94
2022-11-22T05:57:16.117Z,-0.96
2022-11-22T06:00:19.207Z,-0.97
2022-11-22T06:03:22.133Z,-0.86
2022-11-22T06:06:24.532Z,-0.76
2022-11-22T06:09:27.129Z,-0.74
2022-11-22T06:12:30.303Z,-0.78
2022-11-22T06:15:33.227Z,-0.74
2022-11-22T06:18:36.173Z,-0.68
2022-11-22T06:21:40.302Z,-0.56
2022-11-22T06:24:43.219Z,-0.59
2022-11-22T06:27:46.062Z,-0.63
2022-11-22T06:30:48.670Z,-0.63
2022-11-22T06:33:52.231Z,-0.74
2022-11-22T06:36:54.478Z,-0.63
2022-11-22T06:39:56.872Z,-0.70
2022-11-22T06:42:59.346Z,-0.69
2022-11-22T06:46:02.945Z,-0.71
2022-11-22T06:49:07.134Z,-0.72
2022-11-22T06:52:09.748Z,-0.76
2022-11-22T06:55:42.301Z,-0.85
2022-11-22T06:58:36.930Z,-0.77
2022-11-22T07:01:40.237Z,-0.76
2022-11-22T07:05:02.366Z,-0.84
2022-11-22T07:08:13.295Z,-0.82
2022-11-22T07:11:22.041Z,-0.54
2022-11-22T07:14:24.230Z,-0.44
2022-11-22T07:17:26.664Z,-0.48
2022-11-22T07:20:29.853Z,-0.37
2022-11-22T07:23:32.918Z,-0.27
2022-11-22T07:26:35.492Z,-0.33
2022-11-22T07:29:37.904Z,-0.27
2022-11-22T07:32:40.436Z,-0.26
2022-11-22T07:35:43.403Z,-0.25
2022-11-22T07:38:46.458Z,-0.24
2022-11-22T07:41:49.105Z,-0.29
2022-11-22T07:44:51.715Z,-0.34
2022-11-22T07:47:54.585Z,-0.47
2022-11-22T07:51:00.678Z,-0.56
2022-11-22T07:54:03.273Z,-0.39
2022-11-22T07:57:05.602Z,-0.38
2022-11-22T08:00:09.192Z,-0.27
2022-11-22T08:03:17.455Z,-0.20
2022-11-22T08:06:20.643Z,-0.01
2022-11-22T08:09:23.191Z,-0.05
2022-11-22T08:12:25.835Z,0.15
2022-11-22T08:15:28.190Z,0.08
2022-11-22T08:18:30.916Z,0.18
2022-11-22T08:21:33.543Z,0.19
2022-11-22T08:24:37.134Z,0.35
2022-11-22T08:27:41.429Z,0.37
2022-11-22T08:30:44.403Z,0.38
2022-11-22T08:33:47.372Z,0.58
2022-11-22T08:36:50.063Z,0.70
2022-11-22T08:39:52.577Z,0.81
2022-11-22T08:42:56.699Z,0.78
2022-11-22T08:46:02.281Z,0.96
2022-11-22T08:49:06.646Z,1.13
2022-11-22T08:52:09.276Z,1.11
2022-11-22T08:55:12.681Z,1.16
2022-11-22T08:58:15.737Z,1.29
2022-11-22T09:01:19.322Z,1.27
2022-11-22T09:04:44.081Z,1.21
2022-11-22T09:11:12.162Z,1.32
2022-11-22T09:14:14.620Z,0.94
2022-11-22T09:17:18.258Z,1.53
2022-11-22T09:20:21.174Z,1.68
2022-11-22T09:23:23.453Z,1.62
2022-11-22T09:26:25.867Z,1.28
2022-11-22T09:29:28.981Z,1.22
2022-11-22T09:32:33.982Z,1.22
2022-11-22T09:35:36.474Z,1.29
2022-11-22T09:38:39.373Z,1.46
2022-11-22T09:42:10.625Z,1.73
2022-11-22T09:45:46.702Z,1.56
2022-11-22T09:49:19.300Z,1.71
2022-11-22T09:53:20.359Z,1.59
2022-11-22T09:56:26.761Z,1.45
2022-11-22T09:59:33.758Z,1.54
2022-11-22T10:02:59.404Z,1.65
2022-11-22T10:06:08.081Z,1.50
2022-11-22T10:09:35.885Z,1.59
2022-11-22T10:12:58.316Z,1.43
2022-11-22T10:16:24.252Z,1.84
2022-11-22T10:19:40.682Z,1.94
2022-11-22T10:22:43.340Z,1.80
2022-11-22T10:26:01.889Z,1.90
2022-11-22T10:29:32.474Z,1.96
2022-11-22T10:32:46.890Z,1.97
2022-11-22T10:36:19.549Z,2.17
2022-11-22T10:39:53.811Z,2.15
2022-11-22T10:43:35.216Z,2.03
2022-11-22T10:46:51.077Z,2.00
2022-11-22T10:50:02.197Z,1.81
2022-11-22T10:53:07.433Z,1.95
2022-11-22T10:56:33.583Z,2.01
2022-11-22T11:00:13.114Z,2.06
2022-11-22T11:03:28.295Z,2.25
2022-11-22T11:07:10.601Z,1.99
2022-11-22T11:10:29.218Z,2.30
2022-11-22T11:13:45.347Z,1.82
2022-11-22T11:16:48.445Z,2.10
2022-11-22T11:19:51.470Z,1.88
2022-11-22T11:23:14.104Z,2.10
2022-11-22T11:26:27.777Z,1.70
2022-11-22T11:29:40.987Z,2.04
2022-11-22T11:32:55.246Z,2.17
2022-11-22T11:36:04.078Z,1.89
2022-11-22T11:39:20.807Z,1.74
2022-11-22T11:42:32.512Z,1.93
2022-11-22T11:45:34.900Z,2.15
2022-11-22T11:48:38.621Z,2.15
2022-11-22T11:51:45.514Z,2.01
2022-11-22T11:54:54.767Z,2.19
2022-11-22T11:57:57.073Z,2.36
2022-11-22T12:01:00.473Z,2.11
2022-11-22T12:04:04.931Z,1.82
2022-11-22T12:07:31.251Z,1.88
2022-11-22T12:11:06.539Z,2.05
2022-11-22T12:14:19.975Z,1.96
2022-11-22T12:17:28.781Z,1.95
2022-11-22T12:20:42.920Z,1.96
2022-11-22T12:23:50.606Z,1.87
2022-11-22T12:26:56.470Z,1.93
2022-11-22T12:29:59.846Z,1.89
2022-11-22T12:33:04.078Z,2.00
2022-11-22T12:36:13.620Z,1.88
2022-11-22T12:39:22.134Z,1.63
2022-11-22T12:42:35.073Z,1.69
2022-11-22T12:45:41.878Z,1.63
2022-11-22T12:48:49.182Z,1.43
2022-11-22T12:51:56.665Z,1.44
2022-11-22T12:55:05.327Z,1.57
2022-11-22T12:58:33.113Z,1.47
2022-11-22T13:01:44.905Z,1.53
2022-11-22T13:05:01.293Z,1.59
2022-11-22T13:08:06.899Z,1.61
2022-11-22T13:11:40.057Z,1.08
2022-11-22T13:14:45.610Z,1.54
2022-11-22T13:17:48.711Z,1.46
2022-11-22T13:21:04.674Z,1.47
2022-11-22T13:24:53.334Z,1.51
2022-11-22T13:28:01.065Z,1.78
2022-11-22T13:31:07.827Z,1.33
2022-11-22T13:34:27.834Z,1.47
2022-11-22T13:37:33.586Z,1.56
2022-11-22T13:40:40.038Z,1.49
2022-11-22T13:44:18.563Z,1.56
2022-11-22T13:47:25.660Z,1.58
2022-11-22T13:50:41.620Z,1.62
2022-11-22T13:53:45.922Z,1.28
2022-11-22T13:56:49.805Z,1.41
2022-11-22T14:00:10.754Z,1.62
2022-11-22T14:03:34.344Z,1.73
2022-11-22T14:06:36.900Z,1.55
2022-11-22T14:09:53.653Z,1.61
2022-11-22T14:13:19.125Z,1.55
2022-11-22T14:17:10.419Z,1.32
2022-11-22T14:20:20.631Z,1.55
2022-11-22T14:24:18.879Z,1.51
2022-11-22T14:27:53.798Z,1.14
2022-11-22T14:30:58.321Z,1.39
2022-11-22T14:34:19.537Z,1.44
2022-11-22T14:37:22.199Z,1.44
2022-11-22T14:40:35.254Z,1.21
2022-11-22T14:43:40.126Z,1.24
2022-11-22T14:46:56.709Z,1.20
2022-11-22T14:49:59.811Z,1.39
2022-11-22T14:53:31.780Z,1.33
2022-11-22T14:56:36.511Z,1.20
2022-11-22T14:59:50.188Z,1.00
2022-11-22T15:03:05.183Z,1.06
2022-11-22T15:09:17.242Z,0.96
2022-11-22T15:09:55.303Z,1.09
2022-11-22T15:12:58.070Z,0.99
2022-11-22T15:58:03.266Z,0.90
2022-11-22T16:01:19.070Z,0.85
2022-11-22T16:04:28.446Z,0.28
2022-11-22T16:07:41.336Z,0.97
2022-11-22T16:10:50.140Z,0.94
2022-11-22T16:13:53.660Z,1.06
2022-11-22T16:17:24.063Z,1.09
2022-11-22T16:20:30.376Z,1.04
2022-11-22T16:23:36.219Z,0.82
2022-11-22T16:26:40.362Z,1.08
2022-11-22T16:29:44.412Z,1.15
2022-11-22T16:32:48.599Z,1.08
2022-11-22T16:35:56.623Z,0.88
2022-11-22T16:38:59.693Z,0.86
2022-11-22T16:42:03.292Z,0.89
2022-11-22T16:45:12.959Z,1.13
2022-11-22T16:48:33.020Z,0.80
2022-11-22T16:51:36.436Z,0.95
2022-11-22T16:54:40.023Z,0.89
2022-11-22T16:57:42.832Z,1.23
2022-11-22T17:00:47.347Z,1.04
2022-11-22T17:03:51.370Z,0.88
2022-11-22T17:06:54.813Z,0.86
2022-11-22T17:09:57.849Z,0.84
2022-11-22T17:13:01.015Z,1.06
2022-11-22T17:16:04.404Z,1.06
2022-11-22T17:19:14.534Z,1.08
2022-11-22T17:22:29.927Z,1.04
2022-11-22T17:25:33.073Z,0.98
2022-11-22T17:28:35.630Z,1.00
2022-11-22T17:31:38.794Z,1.20
2022-11-22T17:34:41.652Z,1.06
2022-11-22T17:37:44.282Z,1.09
2022-11-22T17:40:47.239Z,0.98
2022-11-22T17:43:50.847Z,1.02
2022-11-22T17:46:53.833Z,1.18
2022-11-22T17:49:56.426Z,0.75
2022-11-22T17:52:59.131Z,0.91
2022-11-22T17:56:10.383Z,1.12
2022-11-22T17:59:13.558Z,1.22
2022-11-22T18:02:16.190Z,1.02
2022-11-22T18:05:18.650Z,1.14
2022-11-22T18:08:21.095Z,1.08
2022-11-22T18:11:23.806Z,1.18
2022-11-22T18:14:27.771Z,1.12
2022-11-22T18:17:35.216Z,1.07
2022-11-22T18:20:38.816Z,0.98
2022-11-22T18:23:41.883Z,1.11
2022-11-22T18:26:44.474Z,1.08
2022-11-22T18:29:47.104Z,1.20
2022-11-22T18:32:49.729Z,1.17
2022-11-22T18:36:00.568Z,0.90
2022-11-22T18:39:03.031Z,1.02
2022-11-22T18:42:11.704Z,0.90
2022-11-22T18:45:14.232Z,1.16
2022-11-22T18:48:16.906Z,1.08
2022-11-22T18:51:19.496Z,1.01
2022-11-22T18:54:23.048Z,0.97
2022-11-22T18:57:25.568Z,0.89
2022-11-22T19:00:29.456Z,1.05
2022-11-22T19:03:32.156Z,0.82
2022-11-22T19:06:34.596Z,0.97
2022-11-22T19:09:36.958Z,0.87
2022-11-22T19:12:39.904Z,0.74
2022-11-22T19:15:42.280Z,0.83
2022-11-22T19:18:45.270Z,0.73
2022-11-22T19:21:48.801Z,0.81
2022-11-22T19:24:51.206Z,0.76
2022-11-22T19:27:53.836Z,0.79
2022-11-22T19:31:06.555Z,0.68
2022-11-22T19:34:08.975Z,0.80
2022-11-22T19:37:11.913Z,0.79
2022-11-22T19:40:14.655Z,1.03
2022-11-22T19:43:18.486Z,0.92
2022-11-22T19:46:22.880Z,0.91
2022-11-22T19:49:27.416Z,1.05
2022-11-22T19:52:29.928Z,0.95
2022-11-22T19:55:36.422Z,0.71
2022-11-22T19:58:40.167Z,0.62
2022-11-22T20:01:42.973Z,0.79
2022-11-22T20:04:45.773Z,0.49
2022-11-22T20:07:48.077Z,0.52
2022-11-22T20:10:53.470Z,0.76
2022-11-22T20:13:55.927Z,0.88
2022-11-22T20:16:58.594Z,0.88
2022-11-22T20:20:01.154Z,0.73
2022-11-22T20:23:03.470Z,0.83
2022-11-22T20:26:15.093Z,0.47
2022-11-22T20:29:22.054Z,0.21
2022-11-22T20:32:24.655Z,0.41
2022-11-22T20:35:27.275Z,0.56
2022-11-22T20:38:32.845Z,0.65
2022-11-22T20:41:36.614Z,0.38
2022-11-22T20:44:40.926Z,0.59
2022-11-22T20:47:43.870Z,0.43
2022-11-22T20:50:51.856Z,0.32
2022-11-22T20:53:56.611Z,0.51
2022-11-22T20:57:00.685Z,0.74
2022-11-22T21:00:03.698Z,0.87
2022-11-22T21:03:07.243Z,0.67
2022-11-22T21:06:11.740Z,0.69
2022-11-22T21:09:16.702Z,0.65
2022-11-22T21:12:19.872Z,0.57
2022-11-22T21:15:22.425Z,0.62
2022-11-22T21:18:26.232Z,0.51
2022-11-22T21:21:28.971Z,0.33
2022-11-22T21:24:31.700Z,0.37
2022-11-22T21:27:36.050Z,0.41
2022-11-22T21:30:38.968Z,0.80
2022-11-22T21:33:42.950Z,0.61
2022-11-22T21:36:46.557Z,0.75
2022-11-22T21:39:48.994Z,0.85
2022-11-22T21:42:51.562Z,0.73
2022-11-22T21:45:54.432Z,0.67
2022-11-22T21:49:00.098Z,0.49
2022-11-22T21:52:02.895Z,0.55
2022-11-22T21:55:06.212Z,0.58
2022-11-22T21:58:08.612Z,0.71
2022-11-22T22:01:14.390Z,0.34
2022-11-22T22:04:17.525Z,0.57
2022-11-22T22:07:44.692Z,0.40
2022-11-22T22:10:42.494Z,0.47
2022-11-22T22:13:45.614Z,0.31
2022-11-22T22:16:48.630Z,0.30
2022-11-22T22:19:52.525Z,0.41
2022-11-22T22:22:54.978Z,0.51
2022-11-22T22:25:59.478Z,0.41
2022-11-22T22:29:02.291Z,0.41
2022-11-22T22:32:10.401Z,0.31
2022-11-22T22:35:13.706Z,0.08
2022-11-22T22:38:16.226Z,0.43
2022-11-22T22:41:19.213Z,-0.04
2022-11-22T22:44:21.792Z,0.10
2022-11-22T22:47:25.871Z,0.05
2022-11-22T22:50:28.478Z,0.21
2022-11-22T22:53:31.537Z,0.29
2022-11-22T22:56:34.302Z,0.21
2022-11-22T22:59:37.702Z,0.16
2022-11-22T23:02:40.432Z,0.37
2022-11-22T23:05:42.822Z,0.31
2022-11-22T23:08:47.735Z,0.30
2022-11-22T23:12:08.634Z,0.27
2022-11-22T23:15:11.222Z,0.32
2022-11-22T23:18:14.501Z,0.24
2022-11-22T23:21:16.910Z,0.33
2022-11-22T23:24:21.371Z,0.49
2022-11-22T23:27:24.766Z,0.51
2022-11-22T23:30:28.338Z,0.34
2022-11-22T23:33:32.179Z,0.52
2022-11-22T23:36:40.417Z,0.41
2022-11-22T23:39:43.691Z,0.31
2022-11-22T23:42:47.058Z,0.46
2022-11-22T23:45:49.543Z,0.66
2022-11-22T23:49:00.867Z,0.45
2022-11-22T23:52:03.454Z,0.36
2022-11-22T23:55:06.599Z,0.29
2022-11-22T23:58:09.078Z,0.41
